Danxian, China
Current Conditions -  °F | °C
As of 12:00 AM on Saturday 01 Nov 2014 (Local Time) from ZJHK Reporting Station
Clear Clear  
Wind Chill: 73°   Ceiling: Unl
Heat Index: 73°   Visibility: 4mi
Dew Point: 72°   Wind: 0mph
Humidity: 94%   Direction: NA
Pressure: 29.91"   Gusts: NA
Location:  19.52°N, 109.58°E
Report Text: ZJHK 311600Z 00000MPS 6000 NSC 23/22 Q1013 NOSIG
Loading
Personal Weather Stations






























Interactive Weather Map
Tropical Storm Tracking
New forecast layout! Learn more

10-Day Weather Forecast

Advertisements
Track Severe Weather on mobile